sensor_id;sensor_type;location;lat;lon;timestamp;pressure;altitude;pressure_sealevel;temperature;humidity
47082;BME280;33066;49.296;14.470;2024-01-30T00:00:44;98554.78;;;7.38;34.08
47082;BME280;33066;49.296;14.470;2024-01-30T00:03:09;98554.21;;;7.39;34.26
47082;BME280;33066;49.296;14.470;2024-01-30T00:05:35;98555.97;;;7.35;34.46
47082;BME280;33066;49.296;14.470;2024-01-30T00:08:00;98557.95;;;7.39;34.50
47082;BME280;33066;49.296;14.470;2024-01-30T00:10:25;98561.38;;;7.48;34.67
47082;BME280;33066;49.296;14.470;2024-01-30T00:12:51;98565.01;;;7.58;34.72
47082;BME280;33066;49.296;14.470;2024-01-30T00:15:17;98566.47;;;7.64;34.89
47082;BME280;33066;49.296;14.470;2024-01-30T00:17:42;98570.24;;;7.71;34.80
47082;BME280;33066;49.296;14.470;2024-01-30T00:20:09;98570.03;;;7.43;34.69
47082;BME280;33066;49.296;14.470;2024-01-30T00:22:33;98569.25;;;7.38;34.68
47082;BME280;33066;49.296;14.470;2024-01-30T00:24:58;98572.75;;;7.67;34.62
47082;BME280;33066;49.296;14.470;2024-01-30T00:27:24;98572.95;;;7.38;34.43
47082;BME280;33066;49.296;14.470;2024-01-30T00:29:49;98572.42;;;7.57;33.90
47082;BME280;33066;49.296;14.470;2024-01-30T00:32:15;98570.32;;;7.44;33.72
47082;BME280;33066;49.296;14.470;2024-01-30T00:34:41;98572.24;;;7.34;33.83
47082;BME280;33066;49.296;14.470;2024-01-30T00:37:05;98572.02;;;6.94;33.85
47082;BME280;33066;49.296;14.470;2024-01-30T00:39:30;98572.22;;;7.01;34.06
47082;BME280;33066;49.296;14.470;2024-01-30T00:41:56;98569.48;;;6.95;34.13
47082;BME280;33066;49.296;14.470;2024-01-30T00:44:21;98570.25;;;6.94;34.18
47082;BME280;33066;49.296;14.470;2024-01-30T00:46:47;98564.13;;;6.94;34.26
47082;BME280;33066;49.296;14.470;2024-01-30T00:49:12;98563.04;;;6.96;34.22
47082;BME280;33066;49.296;14.470;2024-01-30T00:51:37;98564.12;;;7.24;34.24
47082;BME280;33066;49.296;14.470;2024-01-30T00:54:03;98562.57;;;7.01;34.25
47082;BME280;33066;49.296;14.470;2024-01-30T00:56:29;98561.23;;;7.07;34.06
47082;BME280;33066;49.296;14.470;2024-01-30T00:58:55;98558.77;;;7.24;33.83
47082;BME280;33066;49.296;14.470;2024-01-30T01:01:20;98559.20;;;6.92;33.91
47082;BME280;33066;49.296;14.470;2024-01-30T01:03:45;98558.48;;;6.86;33.94
47082;BME280;33066;49.296;14.470;2024-01-30T01:06:10;98556.41;;;7.10;34.02
47082;BME280;33066;49.296;14.470;2024-01-30T01:08:36;98554.39;;;7.08;34.14
47082;BME280;33066;49.296;14.470;2024-01-30T01:11:01;98554.89;;;7.03;34.14
47082;BME280;33066;49.296;14.470;2024-01-30T01:13:27;98555.68;;;7.19;34.43
47082;BME280;33066;49.296;14.470;2024-01-30T01:15:53;98551.97;;;7.18;34.41
47082;BME280;33066;49.296;14.470;2024-01-30T01:18:17;98548.43;;;6.82;34.11
47082;BME280;33066;49.296;14.470;2024-01-30T01:20:43;98546.25;;;7.05;33.92
47082;BME280;33066;49.296;14.470;2024-01-30T01:23:09;98546.93;;;6.88;34.01
47082;BME280;33066;49.296;14.470;2024-01-30T01:25:34;98543.32;;;6.83;33.77
47082;BME280;33066;49.296;14.470;2024-01-30T01:27:59;98541.39;;;6.75;33.63
47082;BME280;33066;49.296;14.470;2024-01-30T01:30:25;98543.10;;;6.61;33.50
47082;BME280;33066;49.296;14.470;2024-01-30T01:32:50;98544.21;;;6.76;33.59
47082;BME280;33066;49.296;14.470;2024-01-30T01:35:16;98549.41;;;6.74;33.76
47082;BME280;33066;49.296;14.470;2024-01-30T01:37:41;98551.41;;;6.37;34.17
47082;BME280;33066;49.296;14.470;2024-01-30T01:40:08;98552.06;;;6.61;34.09
47082;BME280;33066;49.296;14.470;2024-01-30T01:42:33;98556.84;;;6.59;34.10
47082;BME280;33066;49.296;14.470;2024-01-30T01:44:58;98556.08;;;6.62;34.14
47082;BME280;33066;49.296;14.470;2024-01-30T01:47:25;98555.61;;;6.93;34.23
47082;BME280;33066;49.296;14.470;2024-01-30T01:49:49;98553.08;;;6.58;33.96
47082;BME280;33066;49.296;14.470;2024-01-30T01:52:14;98545.96;;;6.56;33.53
47082;BME280;33066;49.296;14.470;2024-01-30T01:54:40;98546.90;;;6.75;33.41
47082;BME280;33066;49.296;14.470;2024-01-30T01:57:05;98545.99;;;6.71;33.26
47082;BME280;33066;49.296;14.470;2024-01-30T01:59:32;98541.71;;;6.88;33.39
47082;BME280;33066;49.296;14.470;2024-01-30T02:01:57;98541.61;;;6.36;33.37
47082;BME280;33066;49.296;14.470;2024-01-30T02:04:22;98541.98;;;6.75;33.47
47082;BME280;33066;49.296;14.470;2024-01-30T02:06:48;98541.33;;;6.48;33.41
47082;BME280;33066;49.296;14.470;2024-01-30T02:09:13;98540.06;;;6.61;33.48
47082;BME280;33066;49.296;14.470;2024-01-30T02:11:39;98540.14;;;6.33;33.60
47082;BME280;33066;49.296;14.470;2024-01-30T02:14:05;98540.23;;;6.05;33.63
47082;BME280;33066;49.296;14.470;2024-01-30T02:16:29;98542.72;;;6.47;33.58
47082;BME280;33066;49.296;14.470;2024-01-30T02:18:55;98546.77;;;6.23;33.71
47082;BME280;33066;49.296;14.470;2024-01-30T02:21:20;98548.38;;;6.14;33.86
47082;BME280;33066;49.296;14.470;2024-01-30T02:23:47;98546.33;;;6.46;33.85
47082;BME280;33066;49.296;14.470;2024-01-30T02:26:12;98546.68;;;6.25;33.84
47082;BME280;33066;49.296;14.470;2024-01-30T02:28:37;98543.25;;;6.47;33.79
47082;BME280;33066;49.296;14.470;2024-01-30T02:31:03;98541.08;;;6.47;33.86
47082;BME280;33066;49.296;14.470;2024-01-30T02:33:28;98540.61;;;6.51;33.71
47082;BME280;33066;49.296;14.470;2024-01-30T02:35:53;98541.21;;;6.48;33.54
47082;BME280;33066;49.296;14.470;2024-01-30T02:38:19;98543.00;;;6.05;33.54
47082;BME280;33066;49.296;14.470;2024-01-30T02:40:44;98542.05;;;6.20;33.33
47082;BME280;33066;49.296;14.470;2024-01-30T02:43:09;98542.68;;;6.40;33.28
47082;BME280;33066;49.296;14.470;2024-01-30T02:45:35;98542.32;;;6.34;33.51
47082;BME280;33066;49.296;14.470;2024-01-30T02:48:00;98541.64;;;5.90;33.51
47082;BME280;33066;49.296;14.470;2024-01-30T02:50:25;98544.11;;;6.40;33.53
47082;BME280;33066;49.296;14.470;2024-01-30T02:52:51;98545.07;;;6.44;33.38
47082;BME280;33066;49.296;14.470;2024-01-30T02:55:16;98541.06;;;6.13;33.32
47082;BME280;33066;49.296;14.470;2024-01-30T02:57:41;98539.78;;;6.30;33.26
47082;BME280;33066;49.296;14.470;2024-01-30T03:00:07;98530.38;;;6.24;33.33
47082;BME280;33066;49.296;14.470;2024-01-30T03:02:32;98527.38;;;5.96;33.30
47082;BME280;33066;49.296;14.470;2024-01-30T03:04:57;98526.55;;;6.25;33.19
47082;BME280;33066;49.296;14.470;2024-01-30T03:07:22;98528.93;;;6.30;33.05
47082;BME280;33066;49.296;14.470;2024-01-30T03:09:48;98526.83;;;6.23;32.97
47082;BME280;33066;49.296;14.470;2024-01-30T03:12:13;98523.84;;;6.13;33.02
47082;BME280;33066;49.296;14.470;2024-01-30T03:14:38;98523.48;;;6.02;33.17
47082;BME280;33066;49.296;14.470;2024-01-30T03:17:04;98523.60;;;6.03;33.26
47082;BME280;33066;49.296;14.470;2024-01-30T03:19:30;98524.50;;;6.03;33.39
47082;BME280;33066;49.296;14.470;2024-01-30T03:21:55;98525.55;;;6.03;33.30
47082;BME280;33066;49.296;14.470;2024-01-30T03:24:21;98524.95;;;6.08;33.66
47082;BME280;33066;49.296;14.470;2024-01-30T03:26:47;98523.77;;;6.20;33.74
47082;BME280;33066;49.296;14.470;2024-01-30T03:29:12;98522.04;;;6.27;33.87
47082;BME280;33066;49.296;14.470;2024-01-30T03:31:38;98526.41;;;6.08;33.66
47082;BME280;33066;49.296;14.470;2024-01-30T03:34:03;98525.76;;;6.41;33.42
47082;BME280;33066;49.296;14.470;2024-01-30T03:36:28;98528.66;;;6.43;33.43
47082;BME280;33066;49.296;14.470;2024-01-30T03:38:54;98529.04;;;6.16;32.99
47082;BME280;33066;49.296;14.470;2024-01-30T03:41:19;98526.99;;;6.36;32.92
47082;BME280;33066;49.296;14.470;2024-01-30T03:43:44;98524.80;;;6.02;32.74
47082;BME280;33066;49.296;14.470;2024-01-30T03:46:11;98523.12;;;6.15;32.86
47082;BME280;33066;49.296;14.470;2024-01-30T03:48:35;98523.68;;;5.86;32.87
47082;BME280;33066;49.296;14.470;2024-01-30T03:51:00;98519.87;;;6.06;32.84
47082;BME280;33066;49.296;14.470;2024-01-30T03:53:25;98522.10;;;6.07;33.00
47082;BME280;33066;49.296;14.470;2024-01-30T03:55:51;98524.67;;;6.05;33.21
47082;BME280;33066;49.296;14.470;2024-01-30T03:58:16;98523.30;;;6.05;33.15
47082;BME280;33066;49.296;14.470;2024-01-30T04:00:42;98523.86;;;6.11;33.22
47082;BME280;33066;49.296;14.470;2024-01-30T04:03:07;98523.23;;;6.15;33.31
47082;BME280;33066;49.296;14.470;2024-01-30T04:05:33;98521.66;;;6.20;33.71
47082;BME280;33066;49.296;14.470;2024-01-30T04:07:59;98518.64;;;6.30;33.65
47082;BME280;33066;49.296;14.470;2024-01-30T04:13:00;98519.18;;;6.70;33.03
47082;BME280;33066;49.296;14.470;2024-01-30T04:15:26;98518.76;;;6.33;32.88
47082;BME280;33066;49.296;14.470;2024-01-30T04:17:52;98517.38;;;6.46;33.11
47082;BME280;33066;49.296;14.470;2024-01-30T04:20:18;98512.42;;;6.40;33.07
47082;BME280;33066;49.296;14.470;2024-01-30T04:22:44;98512.07;;;6.32;32.97
47082;BME280;33066;49.296;14.470;2024-01-30T04:25:09;98512.70;;;6.52;33.19
47082;BME280;33066;49.296;14.470;2024-01-30T04:27:34;98514.56;;;6.58;33.25
47082;BME280;33066;49.296;14.470;2024-01-30T04:30:00;98516.68;;;6.41;33.29
47082;BME280;33066;49.296;14.470;2024-01-30T04:32:25;98520.02;;;6.49;33.34
47082;BME280;33066;49.296;14.470;2024-01-30T04:34:51;98521.04;;;6.28;33.42
47082;BME280;33066;49.296;14.470;2024-01-30T04:37:16;98521.47;;;6.50;33.59
47082;BME280;33066;49.296;14.470;2024-01-30T04:39:42;98523.03;;;6.78;33.80
47082;BME280;33066;49.296;14.470;2024-01-30T04:42:07;98521.31;;;6.37;33.96
47082;BME280;33066;49.296;14.470;2024-01-30T04:44:32;98521.05;;;6.67;34.00
47082;BME280;33066;49.296;14.470;2024-01-30T04:46:58;98522.08;;;6.48;34.00
47082;BME280;33066;49.296;14.470;2024-01-30T04:49:23;98524.45;;;6.73;33.74
47082;BME280;33066;49.296;14.470;2024-01-30T04:51:49;98521.42;;;6.95;33.84
47082;BME280;33066;49.296;14.470;2024-01-30T04:54:14;98520.87;;;6.44;33.88
47082;BME280;33066;49.296;14.470;2024-01-30T04:56:39;98519.44;;;6.73;34.04
47082;BME280;33066;49.296;14.470;2024-01-30T04:59:05;98523.46;;;6.55;34.33
47082;BME280;33066;49.296;14.470;2024-01-30T05:01:30;98524.94;;;6.78;35.20
47082;BME280;33066;49.296;14.470;2024-01-30T05:03:55;98526.50;;;6.58;35.64
47082;BME280;33066;49.296;14.470;2024-01-30T05:06:24;98525.27;;;6.25;36.63
47082;BME280;33066;49.296;14.470;2024-01-30T05:08:46;98524.55;;;6.49;37.27
47082;BME280;33066;49.296;14.470;2024-01-30T05:11:11;98525.94;;;6.51;37.55
47082;BME280;33066;49.296;14.470;2024-01-30T05:13:37;98526.54;;;6.42;37.74
47082;BME280;33066;49.296;14.470;2024-01-30T05:16:03;98528.63;;;6.43;37.63
47082;BME280;33066;49.296;14.470;2024-01-30T05:18:28;98531.12;;;6.77;37.70
47082;BME280;33066;49.296;14.470;2024-01-30T05:20:53;98531.48;;;6.75;37.83
47082;BME280;33066;49.296;14.470;2024-01-30T05:23:18;98532.07;;;6.30;38.10
47082;BME280;33066;49.296;14.470;2024-01-30T05:25:44;98533.37;;;6.03;38.47
47082;BME280;33066;49.296;14.470;2024-01-30T05:28:09;98531.84;;;6.42;38.51
47082;BME280;33066;49.296;14.470;2024-01-30T05:30:34;98527.19;;;6.41;38.47
47082;BME280;33066;49.296;14.470;2024-01-30T05:33:00;98526.63;;;6.50;38.20
47082;BME280;33066;49.296;14.470;2024-01-30T05:35:26;98527.35;;;6.41;38.36
47082;BME280;33066;49.296;14.470;2024-01-30T05:37:51;98529.61;;;6.41;38.57
47082;BME280;33066;49.296;14.470;2024-01-30T05:40:17;98533.25;;;6.51;38.57
47082;BME280;33066;49.296;14.470;2024-01-30T05:42:42;98531.61;;;6.41;38.66
47082;BME280;33066;49.296;14.470;2024-01-30T05:45:08;98529.62;;;6.24;38.84
47082;BME280;33066;49.296;14.470;2024-01-30T05:47:33;98532.28;;;6.15;39.00
47082;BME280;33066;49.296;14.470;2024-01-30T05:49:59;98532.45;;;6.07;39.09
47082;BME280;33066;49.296;14.470;2024-01-30T05:52:24;98532.37;;;6.35;39.10
47082;BME280;33066;49.296;14.470;2024-01-30T05:54:49;98532.35;;;6.09;39.14
47082;BME280;33066;49.296;14.470;2024-01-30T05:57:15;98531.36;;;6.46;38.90
47082;BME280;33066;49.296;14.470;2024-01-30T05:59:40;98527.99;;;6.41;38.89
47082;BME280;33066;49.296;14.470;2024-01-30T06:02:05;98526.97;;;6.20;38.92
47082;BME280;33066;49.296;14.470;2024-01-30T06:04:31;98529.11;;;6.32;38.77
47082;BME280;33066;49.296;14.470;2024-01-30T06:06:56;98528.38;;;5.93;39.37
47082;BME280;33066;49.296;14.470;2024-01-30T06:09:22;98532.44;;;5.87;39.55
47082;BME280;33066;49.296;14.470;2024-01-30T06:11:47;98533.53;;;5.84;39.76
47082;BME280;33066;49.296;14.470;2024-01-30T06:14:13;98530.90;;;5.97;39.61
47082;BME280;33066;49.296;14.470;2024-01-30T06:16:38;98530.92;;;6.16;39.49
47082;BME280;33066;49.296;14.470;2024-01-30T06:19:03;98529.69;;;5.44;39.77
47082;BME280;33066;49.296;14.470;2024-01-30T06:21:29;98531.64;;;6.13;39.84
47082;BME280;33066;49.296;14.470;2024-01-30T06:23:54;98533.95;;;6.23;39.41
47082;BME280;33066;49.296;14.470;2024-01-30T06:26:19;98535.79;;;6.59;39.25
47082;BME280;33066;49.296;14.470;2024-01-30T06:28:44;98534.63;;;6.80;39.40
47082;BME280;33066;49.296;14.470;2024-01-30T06:31:10;98538.95;;;6.95;38.80
47082;BME280;33066;49.296;14.470;2024-01-30T06:33:36;98544.87;;;6.87;38.87
47082;BME280;33066;49.296;14.470;2024-01-30T06:36:01;98545.27;;;6.86;38.42
47082;BME280;33066;49.296;14.470;2024-01-30T06:38:26;98543.76;;;7.14;38.27
47082;BME280;33066;49.296;14.470;2024-01-30T06:40:52;98541.58;;;6.98;38.22
47082;BME280;33066;49.296;14.470;2024-01-30T06:43:16;98540.12;;;7.08;37.88
47082;BME280;33066;49.296;14.470;2024-01-30T06:45:41;98541.76;;;6.94;37.80
47082;BME280;33066;49.296;14.470;2024-01-30T06:48:08;98540.89;;;7.17;37.88
47082;BME280;33066;49.296;14.470;2024-01-30T06:50:33;98544.37;;;7.24;37.76
47082;BME280;33066;49.296;14.470;2024-01-30T06:52:58;98543.17;;;6.83;37.88
47082;BME280;33066;49.296;14.470;2024-01-30T06:55:24;98545.78;;;7.03;37.97
47082;BME280;33066;49.296;14.470;2024-01-30T06:57:49;98545.01;;;6.94;37.67
47082;BME280;33066;49.296;14.470;2024-01-30T07:00:16;98544.58;;;6.52;38.01
47082;BME280;33066;49.296;14.470;2024-01-30T07:02:41;98539.86;;;6.46;38.03
47082;BME280;33066;49.296;14.470;2024-01-30T07:05:07;98541.11;;;6.64;37.92
47082;BME280;33066;49.296;14.470;2024-01-30T07:07:32;98539.46;;;6.75;37.79
47082;BME280;33066;49.296;14.470;2024-01-30T07:09:57;98542.80;;;7.02;37.79
47082;BME280;33066;49.296;14.470;2024-01-30T07:12:22;98548.37;;;7.10;37.78
47082;BME280;33066;49.296;14.470;2024-01-30T07:14:47;98550.36;;;7.00;37.65
47082;BME280;33066;49.296;14.470;2024-01-30T07:17:13;98550.79;;;6.85;37.62
47082;BME280;33066;49.296;14.470;2024-01-30T07:19:38;98549.83;;;7.34;37.49
47082;BME280;33066;49.296;14.470;2024-01-30T07:22:03;98552.03;;;7.16;37.53
47082;BME280;33066;49.296;14.470;2024-01-30T07:24:31;98553.91;;;7.21;37.46
47082;BME280;33066;49.296;14.470;2024-01-30T07:26:55;98555.71;;;6.74;37.33
47082;BME280;33066;49.296;14.470;2024-01-30T07:29:20;98552.31;;;7.35;37.26
47082;BME280;33066;49.296;14.470;2024-01-30T07:31:46;98553.39;;;7.38;37.11
47082;BME280;33066;49.296;14.470;2024-01-30T07:34:11;98556.47;;;7.42;37.00
47082;BME280;33066;49.296;14.470;2024-01-30T07:36:37;98559.34;;;7.06;37.23
47082;BME280;33066;49.296;14.470;2024-01-30T07:39:03;98563.74;;;7.13;37.28
47082;BME280;33066;49.296;14.470;2024-01-30T07:41:28;98563.30;;;7.38;37.21
47082;BME280;33066;49.296;14.470;2024-01-30T07:43:53;98565.05;;;7.51;37.14
47082;BME280;33066;49.296;14.470;2024-01-30T07:46:19;98561.23;;;7.37;37.07
47082;BME280;33066;49.296;14.470;2024-01-30T07:48:44;98565.32;;;7.17;37.24
47082;BME280;33066;49.296;14.470;2024-01-30T07:51:09;98566.96;;;7.26;37.21
47082;BME280;33066;49.296;14.470;2024-01-30T07:53:35;98566.28;;;7.29;37.21
47082;BME280;33066;49.296;14.470;2024-01-30T07:56:01;98562.26;;;7.37;37.16
47082;BME280;33066;49.296;14.470;2024-01-30T07:58:26;98566.57;;;7.36;37.13
47082;BME280;33066;49.296;14.470;2024-01-30T08:00:51;98564.14;;;7.36;37.15
47082;BME280;33066;49.296;14.470;2024-01-30T08:03:16;98565.43;;;7.50;37.46
47082;BME280;33066;49.296;14.470;2024-01-30T08:05:44;98563.84;;;7.53;37.31
47082;BME280;33066;49.296;14.470;2024-01-30T08:08:08;98559.49;;;7.41;37.33
47082;BME280;33066;49.296;14.470;2024-01-30T08:10:33;98558.53;;;7.32;37.56
47082;BME280;33066;49.296;14.470;2024-01-30T08:12:58;98561.28;;;7.32;37.90
47082;BME280;33066;49.296;14.470;2024-01-30T08:15:24;98564.02;;;7.25;37.63
47082;BME280;33066;49.296;14.470;2024-01-30T08:17:50;98564.61;;;7.32;37.90
47082;BME280;33066;49.296;14.470;2024-01-30T08:20:15;98565.77;;;7.36;37.67
47082;BME280;33066;49.296;14.470;2024-01-30T08:22:40;98560.98;;;7.19;37.53
47082;BME280;33066;49.296;14.470;2024-01-30T08:25:07;98564.65;;;7.39;37.58
47082;BME280;33066;49.296;14.470;2024-01-30T08:27:31;98563.52;;;7.14;37.44
47082;BME280;33066;49.296;14.470;2024-01-30T08:29:57;98567.11;;;7.20;37.31
47082;BME280;33066;49.296;14.470;2024-01-30T08:32:23;98567.47;;;6.79;37.58
47082;BME280;33066;49.296;14.470;2024-01-30T08:34:48;98571.82;;;6.41;38.13
47082;BME280;33066;49.296;14.470;2024-01-30T08:37:14;98566.04;;;6.34;38.48
47082;BME280;33066;49.296;14.470;2024-01-30T08:39:39;98570.69;;;6.37;38.55
47082;BME280;33066;49.296;14.470;2024-01-30T08:42:05;98570.60;;;6.48;38.51
47082;BME280;33066;49.296;14.470;2024-01-30T08:44:31;98571.97;;;6.73;38.52
47082;BME280;33066;49.296;14.470;2024-01-30T08:46:57;98573.71;;;6.50;38.47
47082;BME280;33066;49.296;14.470;2024-01-30T08:49:22;98577.13;;;6.74;38.62
47082;BME280;33066;49.296;14.470;2024-01-30T08:51:47;98575.56;;;7.01;38.54
47082;BME280;33066;49.296;14.470;2024-01-30T08:54:13;98573.95;;;7.18;38.21
47082;BME280;33066;49.296;14.470;2024-01-30T08:56:39;98576.77;;;7.05;38.37
47082;BME280;33066;49.296;14.470;2024-01-30T08:59:04;98574.84;;;6.62;38.56
47082;BME280;33066;49.296;14.470;2024-01-30T09:01:30;98573.92;;;6.80;38.03
47082;BME280;33066;49.296;14.470;2024-01-30T09:03:56;98576.75;;;6.67;37.90
47082;BME280;33066;49.296;14.470;2024-01-30T09:06:21;98578.02;;;6.78;37.89
47082;BME280;33066;49.296;14.470;2024-01-30T09:08:46;98577.87;;;6.84;38.01
47082;BME280;33066;49.296;14.470;2024-01-30T09:11:13;98577.11;;;6.54;37.86
47082;BME280;33066;49.296;14.470;2024-01-30T09:13:37;98577.54;;;6.95;37.81
47082;BME280;33066;49.296;14.470;2024-01-30T09:16:04;98581.50;;;6.91;37.67
47082;BME280;33066;49.296;14.470;2024-01-30T09:18:28;98582.05;;;6.89;37.52
47082;BME280;33066;49.296;14.470;2024-01-30T09:20:54;98578.65;;;7.15;37.17
47082;BME280;33066;49.296;14.470;2024-01-30T09:23:19;98578.69;;;6.95;37.11
47082;BME280;33066;49.296;14.470;2024-01-30T09:25:44;98572.41;;;7.42;36.93
47082;BME280;33066;49.296;14.470;2024-01-30T09:28:10;98577.09;;;7.10;36.99
47082;BME280;33066;49.296;14.470;2024-01-30T09:30:35;98577.45;;;7.16;37.14
47082;BME280;33066;49.296;14.470;2024-01-30T09:33:01;98581.44;;;7.27;37.07
47082;BME280;33066;49.296;14.470;2024-01-30T09:35:26;98579.85;;;7.49;36.87
47082;BME280;33066;49.296;14.470;2024-01-30T09:37:51;98581.92;;;7.74;36.68
47082;BME280;33066;49.296;14.470;2024-01-30T09:40:17;98582.55;;;7.59;36.48
47082;BME280;33066;49.296;14.470;2024-01-30T09:42:44;98583.81;;;7.98;36.47
47082;BME280;33066;49.296;14.470;2024-01-30T09:45:09;98584.95;;;7.68;36.28
47082;BME280;33066;49.296;14.470;2024-01-30T09:47:40;98583.29;;;8.16;36.09
47082;BME280;33066;49.296;14.470;2024-01-30T09:49:59;98584.89;;;7.55;36.09
47082;BME280;33066;49.296;14.470;2024-01-30T09:52:25;98583.46;;;7.81;36.00
47082;BME280;33066;49.296;14.470;2024-01-30T09:54:51;98586.13;;;7.90;35.94
47082;BME280;33066;49.296;14.470;2024-01-30T09:57:15;98585.53;;;7.79;35.90
47082;BME280;33066;49.296;14.470;2024-01-30T09:59:42;98586.16;;;8.05;35.69
47082;BME280;33066;49.296;14.470;2024-01-30T10:02:07;98585.66;;;7.85;35.77
47082;BME280;33066;49.296;14.470;2024-01-30T10:04:32;98587.56;;;8.24;36.07
47082;BME280;33066;49.296;14.470;2024-01-30T10:06:56;98581.01;;;8.16;35.99
47082;BME280;33066;49.296;14.470;2024-01-30T10:09:22;98576.60;;;8.14;35.94
47082;BME280;33066;49.296;14.470;2024-01-30T10:11:49;98577.01;;;8.41;36.15
47082;BME280;33066;49.296;14.470;2024-01-30T10:14:13;98571.15;;;8.22;36.26
47082;BME280;33066;49.296;14.470;2024-01-30T10:16:38;98572.76;;;8.21;36.18
47082;BME280;33066;49.296;14.470;2024-01-30T10:19:04;98567.92;;;8.14;36.08
47082;BME280;33066;49.296;14.470;2024-01-30T10:21:30;98565.40;;;8.13;36.01
47082;BME280;33066;49.296;14.470;2024-01-30T10:23:56;98564.88;;;8.19;36.07
47082;BME280;33066;49.296;14.470;2024-01-30T10:26:21;98560.36;;;8.07;36.08
47082;BME280;33066;49.296;14.470;2024-01-30T10:28:47;98559.15;;;8.02;36.35
47082;BME280;33066;49.296;14.470;2024-01-30T10:31:16;98554.16;;;7.98;36.19
47082;BME280;33066;49.296;14.470;2024-01-30T10:33:38;98548.06;;;7.99;36.23
47082;BME280;33066;49.296;14.470;2024-01-30T10:36:04;98546.87;;;8.05;36.12
47082;BME280;33066;49.296;14.470;2024-01-30T10:38:29;98545.64;;;7.98;36.40
47082;BME280;33066;49.296;14.470;2024-01-30T10:40:57;98546.88;;;8.05;35.95
47082;BME280;33066;49.296;14.470;2024-01-30T10:43:21;98542.87;;;7.94;35.71
47082;BME280;33066;49.296;14.470;2024-01-30T10:45:45;98541.25;;;7.85;35.65
47082;BME280;33066;49.296;14.470;2024-01-30T10:48:09;98540.71;;;8.32;35.92
47082;BME280;33066;49.296;14.470;2024-01-30T10:50:34;98540.81;;;7.93;36.36
47082;BME280;33066;49.296;14.470;2024-01-30T10:53:00;98538.27;;;8.07;36.04
47082;BME280;33066;49.296;14.470;2024-01-30T10:55:27;98535.90;;;7.58;36.48
47082;BME280;33066;49.296;14.470;2024-01-30T10:57:51;98531.50;;;7.67;36.83
47082;BME280;33066;49.296;14.470;2024-01-30T11:00:16;98530.62;;;7.70;36.62
47082;BME280;33066;49.296;14.470;2024-01-30T11:02:43;98529.91;;;7.91;36.49
47082;BME280;33066;49.296;14.470;2024-01-30T11:05:08;98527.44;;;7.93;36.33
47082;BME280;33066;49.296;14.470;2024-01-30T11:07:32;98523.54;;;7.72;35.93
47082;BME280;33066;49.296;14.470;2024-01-30T11:10:01;98518.15;;;7.79;36.01
47082;BME280;33066;49.296;14.470;2024-01-30T11:12:23;98521.80;;;7.75;36.11
47082;BME280;33066;49.296;14.470;2024-01-30T11:14:48;98519.59;;;7.75;36.16
47082;BME280;33066;49.296;14.470;2024-01-30T11:17:13;98521.04;;;7.65;35.86
47082;BME280;33066;49.296;14.470;2024-01-30T11:19:41;98517.55;;;7.75;35.82
47082;BME280;33066;49.296;14.470;2024-01-30T11:22:06;98520.50;;;7.84;36.02
47082;BME280;33066;49.296;14.470;2024-01-30T11:24:30;98520.62;;;7.88;36.10
47082;BME280;33066;49.296;14.470;2024-01-30T11:26:56;98514.95;;;7.85;35.89
47082;BME280;33066;49.296;14.470;2024-01-30T11:29:20;98511.47;;;7.69;36.10
47082;BME280;33066;49.296;14.470;2024-01-30T11:31:51;98508.06;;;7.65;36.18
47082;BME280;33066;49.296;14.470;2024-01-30T11:34:11;98503.05;;;7.96;36.01
47082;BME280;33066;49.296;14.470;2024-01-30T11:36:37;98502.39;;;7.77;35.96
47082;BME280;33066;49.296;14.470;2024-01-30T11:39:02;98502.23;;;7.90;35.81
47082;BME280;33066;49.296;14.470;2024-01-30T11:41:28;98499.97;;;8.27;35.68
47082;BME280;33066;49.296;14.470;2024-01-30T11:43:53;98493.83;;;7.87;35.73
47082;BME280;33066;49.296;14.470;2024-01-30T11:46:18;98496.06;;;8.44;35.54
47082;BME280;33066;49.296;14.470;2024-01-30T11:48:44;98492.85;;;8.40;35.46
47082;BME280;33066;49.296;14.470;2024-01-30T11:51:09;98490.16;;;8.39;35.28
47082;BME280;33066;49.296;14.470;2024-01-30T11:53:35;98492.35;;;8.61;34.89
47082;BME280;33066;49.296;14.470;2024-01-30T11:56:00;98490.23;;;8.26;35.06
47082;BME280;33066;49.296;14.470;2024-01-30T11:58:26;98488.27;;;8.13;35.20
47082;BME280;33066;49.296;14.470;2024-01-30T12:00:54;98486.32;;;8.01;35.30
47082;BME280;33066;49.296;14.470;2024-01-30T12:15:29;98472.63;;;8.71;34.85
47082;BME280;33066;49.296;14.470;2024-01-30T12:17:50;98463.31;;;10.14;33.39
47082;BME280;33066;49.296;14.470;2024-01-30T12:20:19;98459.54;;;11.11;32.06
47082;BME280;33066;49.296;14.470;2024-01-30T12:22:46;98451.46;;;12.63;30.11
47082;BME280;33066;49.296;14.470;2024-01-30T12:25:09;98441.26;;;14.03;28.11
47082;BME280;33066;49.296;14.470;2024-01-30T12:27:36;98434.68;;;15.22;26.57
47082;BME280;33066;49.296;14.470;2024-01-30T12:30:00;98427.95;;;15.91;24.71
47082;BME280;33066;49.296;14.470;2024-01-30T12:32:24;98418.84;;;16.92;24.07
47082;BME280;33066;49.296;14.470;2024-01-30T12:34:55;98409.02;;;17.87;23.18
47082;BME280;33066;49.296;14.470;2024-01-30T12:37:17;98409.97;;;18.42;22.34
47082;BME280;33066;49.296;14.470;2024-01-30T12:39:40;98408.07;;;19.12;21.65
47082;BME280;33066;49.296;14.470;2024-01-30T12:42:09;98404.39;;;19.71;20.91
47082;BME280;33066;49.296;14.470;2024-01-30T12:44:30;98399.09;;;20.36;20.26
47082;BME280;33066;49.296;14.470;2024-01-30T12:46:55;98400.79;;;20.95;19.71
47082;BME280;33066;49.296;14.470;2024-01-30T12:49:21;98397.55;;;21.48;19.12
47082;BME280;33066;49.296;14.470;2024-01-30T12:51:52;98396.62;;;21.76;18.56
47082;BME280;33066;49.296;14.470;2024-01-30T12:54:19;98394.52;;;22.31;18.45
47082;BME280;33066;49.296;14.470;2024-01-30T12:56:40;98390.79;;;22.43;18.03
47082;BME280;33066;49.296;14.470;2024-01-30T12:59:06;98393.97;;;23.35;17.66
47082;BME280;33066;49.296;14.470;2024-01-30T13:01:29;98389.71;;;23.96;17.16
47082;BME280;33066;49.296;14.470;2024-01-30T13:03:53;98391.22;;;24.19;16.68